createdAt,value
2022-09-28T00:02:21.876Z,1.12
2022-09-28T00:05:27.028Z,1.45
2022-09-28T00:08:29.614Z,1.20
2022-09-28T00:11:33.370Z,1.05
2022-09-28T00:14:35.863Z,0.90
2022-09-28T00:17:38.630Z,0.93
2022-09-28T00:20:41.107Z,1.02
2022-09-28T00:24:02.560Z,1.42
2022-09-28T00:27:06.131Z,1.30
2022-09-28T00:30:09.580Z,1.03
2022-09-28T00:33:12.281Z,1.30
2022-09-28T00:36:15.100Z,1.30
2022-09-28T00:39:18.314Z,1.20
2022-09-28T00:42:23.452Z,1.25
2022-09-28T00:45:26.207Z,1.27
2022-09-28T00:48:33.451Z,1.12
2022-09-28T00:51:37.780Z,1.20
2022-09-28T00:54:42.298Z,1.62
2022-09-28T00:57:49.433Z,1.10
2022-09-28T01:00:53.655Z,1.10
2022-09-28T01:03:58.996Z,1.30
2022-09-28T01:07:01.867Z,1.20
2022-09-28T01:10:05.899Z,1.25
2022-09-28T01:13:08.723Z,1.00
2022-09-28T01:16:35.787Z,1.00
2022-09-28T01:19:47.882Z,1.10
2022-09-28T01:22:59.993Z,0.80
2022-09-28T01:26:11.399Z,0.95
2022-09-28T01:29:34.609Z,0.90
2022-09-28T01:32:50.895Z,0.80
2022-09-28T01:36:36.738Z,0.98
2022-09-28T01:39:43.332Z,1.05
2022-09-28T01:42:49.065Z,0.95
2022-09-28T01:45:55.986Z,1.15
2022-09-28T01:48:59.503Z,0.80
2022-09-28T01:52:07.429Z,1.10
2022-09-28T01:55:14.956Z,1.00
2022-09-28T01:58:17.975Z,1.00
2022-09-28T02:01:37.552Z,0.82
2022-09-28T02:04:53.958Z,0.80
2022-09-28T02:08:02.131Z,0.60
2022-09-28T02:11:11.548Z,0.70
2022-09-28T02:14:15.548Z,0.57
2022-09-28T02:17:18.726Z,0.50
2022-09-28T02:20:23.916Z,1.07
2022-09-28T02:23:29.278Z,0.80
2022-09-28T02:26:35.959Z,0.65
2022-09-28T02:29:38.785Z,0.70
2022-09-28T02:32:44.248Z,0.50
2022-09-28T02:35:47.105Z,0.80
2022-09-28T02:38:51.457Z,0.62
2022-09-28T02:42:12.965Z,0.60
2022-09-28T02:45:31.936Z,0.60
2022-09-28T02:48:44.764Z,0.50
2022-09-28T02:52:13.753Z,0.30
2022-09-28T02:55:31.534Z,0.60
2022-09-28T02:59:02.112Z,0.73
2022-09-28T03:02:18.110Z,0.60
2022-09-28T03:05:24.607Z,0.30
2022-09-28T03:08:37.828Z,0.53
2022-09-28T03:11:52.246Z,0.50
2022-09-28T03:15:08.176Z,0.47
2022-09-28T03:18:11.217Z,0.37
2022-09-28T03:21:15.404Z,0.30
2022-09-28T03:24:18.218Z,0.53
2022-09-28T03:27:20.861Z,0.60
2022-09-28T03:30:23.720Z,0.28
2022-09-28T03:33:26.328Z,0.40
2022-09-28T03:36:29.184Z,0.40
2022-09-28T03:39:31.971Z,0.53
2022-09-28T03:42:37.144Z,0.60
2022-09-28T03:45:39.980Z,0.62
2022-09-28T03:48:44.051Z,0.68
2022-09-28T03:51:47.194Z,0.75
2022-09-28T03:54:50.084Z,0.50
2022-09-28T03:57:58.279Z,0.80
2022-09-28T04:01:06.259Z,0.77
2022-09-28T04:04:12.845Z,0.60
2022-09-28T04:07:15.383Z,0.75
2022-09-28T04:10:18.715Z,0.70
2022-09-28T04:13:21.259Z,0.50
2022-09-28T04:16:24.164Z,0.50
2022-09-28T04:19:27.564Z,0.50
2022-09-28T04:22:31.894Z,0.70
2022-09-28T04:25:34.434Z,0.80
2022-09-28T04:28:55.802Z,0.90
2022-09-28T04:32:00.173Z,1.33
2022-09-28T04:35:03.924Z,0.60
2022-09-28T04:38:07.061Z,0.90
2022-09-28T04:41:12.285Z,0.70
2022-09-28T04:44:15.832Z,0.77
2022-09-28T04:47:20.805Z,0.77
2022-09-28T04:50:24.572Z,1.05
2022-09-28T04:53:41.955Z,0.93
2022-09-28T04:56:45.193Z,0.70
2022-09-28T04:59:48.683Z,0.98
2022-09-28T05:02:51.346Z,0.90
2022-09-28T05:05:55.451Z,1.25
2022-09-28T05:08:59.370Z,1.00
2022-09-28T05:12:02.737Z,0.97
2022-09-28T05:15:06.593Z,1.27
2022-09-28T05:18:09.488Z,0.70
2022-09-28T05:21:13.299Z,0.75
2022-09-28T05:24:16.384Z,0.62
2022-09-28T05:27:19.146Z,0.80
2022-09-28T05:30:23.662Z,0.77
2022-09-28T05:33:27.295Z,0.80
2022-09-28T05:36:32.512Z,0.82
2022-09-28T05:39:35.052Z,0.82
2022-09-28T05:42:37.803Z,0.77
2022-09-28T05:45:40.440Z,1.00
2022-09-28T05:48:43.621Z,1.00
2022-09-28T05:51:46.094Z,0.77
2022-09-28T05:54:49.090Z,0.88
2022-09-28T05:57:51.516Z,1.40
2022-09-28T06:00:58.311Z,1.50
2022-09-28T06:04:01.503Z,1.25
2022-09-28T06:07:04.068Z,1.70
2022-09-28T06:10:07.310Z,1.35
2022-09-28T06:13:12.010Z,1.00
2022-09-28T06:16:16.561Z,1.20
2022-09-28T06:19:19.368Z,1.00
2022-09-28T06:22:23.395Z,1.70
2022-09-28T06:25:27.692Z,1.67
2022-09-28T06:28:31.086Z,1.50
2022-09-28T06:31:33.680Z,2.30
2022-09-28T06:34:36.789Z,2.70
2022-09-28T06:37:39.808Z,3.10
2022-09-28T06:40:42.792Z,2.80
2022-09-28T06:43:46.447Z,1.90
2022-09-28T06:46:52.188Z,2.00
2022-09-28T06:49:55.661Z,2.30
2022-09-28T06:53:00.754Z,2.28
2022-09-28T06:56:04.975Z,3.05
2022-09-28T06:59:07.731Z,2.57
2022-09-28T07:02:14.334Z,2.60
2022-09-28T07:05:19.867Z,2.15
2022-09-28T07:08:24.998Z,1.73
2022-09-28T07:11:29.163Z,1.20
2022-09-28T07:14:46.904Z,1.00
2022-09-28T07:18:01.941Z,1.00
2022-09-28T07:21:08.567Z,1.42
2022-09-28T07:24:14.382Z,0.90
2022-09-28T07:27:19.610Z,0.50
2022-09-28T07:30:23.689Z,0.30
2022-09-28T07:33:32.614Z,0.40
2022-09-28T07:36:35.447Z,0.30
2022-09-28T07:39:58.442Z,0.28
2022-09-28T07:43:08.216Z,0.20
2022-09-28T07:46:13.486Z,0.30
2022-09-28T07:49:19.283Z,0.13
2022-09-28T07:52:28.591Z,0.20
2022-09-28T07:55:32.689Z,0.47
2022-09-28T07:58:39.048Z,0.20
2022-09-28T08:01:42.392Z,0.20
2022-09-28T08:04:48.769Z,0.15
2022-09-28T08:07:52.968Z,0.30
2022-09-28T08:10:57.427Z,0.32
2022-09-28T08:14:00.688Z,0.10
2022-09-28T08:17:05.529Z,0.50
2022-09-28T08:20:27.474Z,0.20
2022-09-28T08:23:30.448Z,0.22
2022-09-28T08:26:32.900Z,0.30
2022-09-28T08:29:36.860Z,0.40
2022-09-28T08:32:49.409Z,0.40
2022-09-28T08:35:58.925Z,0.30
2022-09-28T08:39:01.847Z,0.40
2022-09-28T08:42:08.853Z,0.30
2022-09-28T08:45:23.337Z,0.50
2022-09-28T08:49:01.106Z,0.60
2022-09-28T08:52:31.662Z,0.30
2022-09-28T08:55:38.083Z,0.40
2022-09-28T08:58:43.628Z,0.60
2022-09-28T09:01:50.704Z,0.80
2022-09-28T09:04:53.600Z,0.57
2022-09-28T09:08:09.086Z,0.60
2022-09-28T09:11:34.211Z,0.70
2022-09-28T09:14:55.929Z,0.60
2022-09-28T09:18:30.211Z,0.88
2022-09-28T09:21:42.803Z,0.87
2022-09-28T09:24:51.115Z,0.80
2022-09-28T09:28:32.728Z,0.90
2022-09-28T09:31:42.897Z,0.70
2022-09-28T09:35:00.055Z,0.80
2022-09-28T09:38:14.340Z,1.10
2022-09-28T09:41:42.664Z,0.52
2022-09-28T09:45:00.021Z,0.70
2022-09-28T09:48:09.510Z,0.70
2022-09-28T09:51:38.756Z,0.80
2022-09-28T09:54:58.708Z,0.50
2022-09-28T09:58:10.266Z,0.80
2022-09-28T10:01:17.542Z,0.80
2022-09-28T10:04:28.123Z,0.75
2022-09-28T10:07:41.410Z,0.70
2022-09-28T10:10:52.252Z,0.50
2022-09-28T10:13:55.352Z,0.50
2022-09-28T10:17:04.381Z,0.80
2022-09-28T10:20:17.715Z,0.60
2022-09-28T10:23:25.420Z,0.57
2022-09-28T10:26:36.180Z,0.50
2022-09-28T10:30:03.729Z,0.40
2022-09-28T10:33:27.610Z,0.50
2022-09-28T10:36:38.284Z,0.50
2022-09-28T10:39:58.911Z,0.40
2022-09-28T10:43:06.319Z,0.87
2022-09-28T10:46:20.202Z,0.60
2022-09-28T10:49:25.637Z,0.70
2022-09-28T10:52:31.146Z,0.88
2022-09-28T10:55:41.955Z,0.73
2022-09-28T10:58:45.432Z,0.33
2022-09-28T11:01:53.562Z,0.50
2022-09-28T11:04:58.567Z,0.80
2022-09-28T11:08:05.623Z,0.50
2022-09-28T11:11:13.417Z,0.90
2022-09-28T11:14:39.742Z,0.67
2022-09-28T11:17:45.513Z,0.90
2022-09-28T11:20:49.555Z,0.73
2022-09-28T11:24:19.515Z,0.88
2022-09-28T11:27:28.108Z,1.05
2022-09-28T11:30:33.680Z,0.90
2022-09-28T11:33:39.365Z,0.80
2022-09-28T11:37:03.088Z,0.82
2022-09-28T11:40:31.076Z,0.70
2022-09-28T11:43:43.015Z,0.40
2022-09-28T11:46:51.674Z,0.60
2022-09-28T11:50:01.143Z,0.35
2022-09-28T11:53:13.758Z,0.25
2022-09-28T11:56:34.858Z,0.40
2022-09-28T11:59:54.011Z,0.40
2022-09-28T12:03:15.337Z,0.30
2022-09-28T12:06:20.380Z,0.20
2022-09-28T12:09:30.575Z,0.30
2022-09-28T12:12:40.404Z,0.20
2022-09-28T12:16:13.280Z,0.22
2022-09-28T12:19:22.015Z,0.20
2022-09-28T12:22:30.423Z,0.30
2022-09-28T12:25:46.645Z,0.20
2022-09-28T12:28:50.733Z,0.35
2022-09-28T12:32:15.180Z,0.30
2022-09-28T12:35:46.476Z,0.50
2022-09-28T12:39:30.752Z,0.30
2022-09-28T12:42:44.174Z,0.30
2022-09-28T12:46:12.958Z,0.30
2022-09-28T12:53:51.469Z,0.40
2022-09-28T12:57:19.986Z,0.40
2022-09-28T13:00:25.274Z,0.45
2022-09-28T13:03:32.757Z,0.20
2022-09-28T13:07:07.496Z,0.30
2022-09-28T13:10:25.703Z,0.20
2022-09-28T13:14:03.059Z,0.30
2022-09-28T13:17:34.983Z,0.30
2022-09-28T13:20:49.916Z,0.40
2022-09-28T13:24:08.766Z,0.20
2022-09-28T13:27:28.819Z,0.40
2022-09-28T13:30:35.329Z,0.17
2022-09-28T13:33:43.981Z,0.75
2022-09-28T13:36:48.301Z,0.20
2022-09-28T13:39:55.104Z,0.20
2022-09-28T13:43:13.166Z,0.23
2022-09-28T13:46:36.041Z,0.20
2022-09-28T13:50:37.147Z,0.10
2022-09-28T13:54:06.912Z,0.20
2022-09-28T13:57:32.799Z,0.28
2022-09-28T14:00:43.961Z,0.10
2022-09-28T14:04:11.998Z,0.10
2022-09-28T14:07:58.554Z,0.20
2022-09-28T14:11:34.297Z,0.20
2022-09-28T14:14:52.757Z,0.25
2022-09-28T14:18:20.452Z,0.30
2022-09-28T14:21:35.218Z,0.20
2022-09-28T14:24:46.334Z,0.30
2022-09-28T14:28:13.240Z,0.20
2022-09-28T14:31:24.150Z,0.20
2022-09-28T14:34:57.751Z,0.40
2022-09-28T14:38:23.828Z,0.30
2022-09-28T14:41:34.515Z,0.70
2022-09-28T14:45:06.299Z,0.50
2022-09-28T14:48:15.317Z,0.30
2022-09-28T14:51:27.243Z,0.30
2022-09-28T14:54:39.235Z,0.20
2022-09-28T14:57:42.537Z,0.20
2022-09-28T15:00:46.711Z,0.32
2022-09-28T15:03:55.469Z,0.17
2022-09-28T15:06:58.194Z,0.20
2022-09-28T15:10:07.196Z,0.43
2022-09-28T15:13:24.942Z,0.10
2022-09-28T15:16:30.426Z,0.25
2022-09-28T15:19:40.898Z,0.20
2022-09-28T15:22:48.823Z,0.23
2022-09-28T15:25:52.485Z,0.40
2022-09-28T15:28:55.703Z,0.25
2022-09-28T15:31:58.620Z,0.30
2022-09-28T15:35:20.505Z,0.30
2022-09-28T15:38:23.122Z,0.40
2022-09-28T15:41:26.583Z,0.40
2022-09-28T15:44:37.344Z,0.55
2022-09-28T15:47:41.593Z,1.02
2022-09-28T15:51:11.760Z,0.65
2022-09-28T15:54:19.621Z,0.60
2022-09-28T15:57:48.536Z,0.90
2022-09-28T16:01:19.155Z,0.82
2022-09-28T16:04:45.468Z,1.12
2022-09-28T16:07:56.016Z,1.15
2022-09-28T16:11:20.371Z,0.90
2022-09-28T16:14:24.671Z,0.52
2022-09-28T16:17:35.266Z,1.02
2022-09-28T16:20:39.238Z,1.30
2022-09-28T16:23:42.053Z,1.12
2022-09-28T16:26:44.645Z,1.20
2022-09-28T16:30:03.819Z,1.17
2022-09-28T16:33:27.381Z,1.50
2022-09-28T16:36:43.403Z,1.33
2022-09-28T16:39:45.920Z,1.40
2022-09-28T16:42:49.467Z,1.30
2022-09-28T16:45:56.683Z,1.60
2022-09-28T16:48:59.853Z,1.17
2022-09-28T16:52:02.617Z,0.95
2022-09-28T16:58:42.559Z,1.50
2022-09-28T17:01:49.464Z,1.10
2022-09-28T17:04:52.289Z,1.20
2022-09-28T17:08:01.027Z,1.58
2022-09-28T17:11:24.176Z,1.15
2022-09-28T17:14:27.126Z,1.63
2022-09-28T17:17:31.572Z,1.48
2022-09-28T17:20:35.438Z,1.15
2022-09-28T17:23:38.012Z,1.10
2022-09-28T17:26:43.785Z,0.75
2022-09-28T17:29:46.453Z,0.97
2022-09-28T17:32:49.763Z,0.70
2022-09-28T17:35:53.657Z,1.30
2022-09-28T17:38:57.250Z,0.98
2022-09-28T17:41:59.866Z,0.98
2022-09-28T17:45:02.755Z,0.80
2022-09-28T17:48:06.808Z,0.70
2022-09-28T17:51:09.810Z,0.62
2022-09-28T17:54:13.659Z,0.70
2022-09-28T17:57:16.532Z,1.30
2022-09-28T18:00:19.365Z,1.47
2022-09-28T18:03:23.761Z,1.00
2022-09-28T18:06:26.364Z,1.48
2022-09-28T18:09:29.947Z,1.25
2022-09-28T18:12:32.916Z,1.75
2022-09-28T18:15:35.785Z,1.40
2022-09-28T18:18:42.688Z,1.70
2022-09-28T18:21:45.514Z,1.52
2022-09-28T18:24:48.691Z,1.45
2022-09-28T18:27:54.492Z,1.33
2022-09-28T18:30:57.427Z,1.63
2022-09-28T18:34:03.149Z,4.43
2022-09-28T18:37:06.260Z,11.90
2022-09-28T18:40:10.999Z,13.80
2022-09-28T18:43:13.720Z,12.27
2022-09-28T18:46:20.137Z,11.27
2022-09-28T18:49:23.071Z,8.52
2022-09-28T18:52:26.970Z,5.87
2022-09-28T18:55:30.537Z,3.42
2022-09-28T18:58:35.514Z,1.92
2022-09-28T19:01:38.315Z,1.50
2022-09-28T19:04:41.517Z,1.60
2022-09-28T19:07:44.929Z,1.62
2022-09-28T19:10:48.702Z,1.60
2022-09-28T19:13:54.792Z,1.80
2022-09-28T19:16:57.616Z,1.90
2022-09-28T19:20:00.188Z,1.80
2022-09-28T19:23:04.053Z,1.80
2022-09-28T19:26:10.020Z,1.75
2022-09-28T19:29:13.406Z,1.62
2022-09-28T19:32:16.024Z,2.10
2022-09-28T19:35:18.780Z,2.22
2022-09-28T19:38:21.237Z,1.85
2022-09-28T19:41:45.732Z,2.00
2022-09-28T19:44:51.052Z,1.77
2022-09-28T19:47:58.678Z,1.70
2022-09-28T19:51:06.323Z,1.83
2022-09-28T19:54:10.935Z,1.92
2022-09-28T19:57:14.486Z,1.60
2022-09-28T20:00:17.419Z,1.87
2022-09-28T20:03:20.959Z,1.80
2022-09-28T20:06:24.767Z,1.77
2022-09-28T20:09:27.600Z,1.30
2022-09-28T20:12:30.819Z,1.70
2022-09-28T20:15:35.743Z,1.48
2022-09-28T20:18:40.242Z,1.60
2022-09-28T20:21:43.162Z,1.30
2022-09-28T20:24:45.853Z,1.70
2022-09-28T20:27:48.707Z,1.30
2022-09-28T20:30:51.243Z,1.27
2022-09-28T20:33:54.093Z,1.40
2022-09-28T20:36:56.631Z,1.48
2022-09-28T20:40:01.529Z,1.27
2022-09-28T20:43:07.692Z,1.27
2022-09-28T20:46:11.045Z,1.45
2022-09-28T20:49:13.703Z,1.50
2022-09-28T20:52:17.178Z,1.35
2022-09-28T20:55:19.673Z,1.50
2022-09-28T20:58:22.545Z,1.35
2022-09-28T21:01:27.386Z,1.15
2022-09-28T21:04:30.463Z,1.43
2022-09-28T21:07:33.177Z,1.30
2022-09-28T21:10:35.912Z,1.33
2022-09-28T21:13:41.564Z,1.60
2022-09-28T21:16:44.361Z,1.70
2022-09-28T21:19:46.850Z,1.40
2022-09-28T21:22:49.617Z,1.40
2022-09-28T21:26:04.991Z,1.40
2022-09-28T21:29:12.356Z,1.50
2022-09-28T21:32:14.995Z,1.70
2022-09-28T21:35:18.071Z,1.57
2022-09-28T21:38:20.665Z,1.73
2022-09-28T21:41:25.023Z,1.40
2022-09-28T21:44:27.687Z,1.73
2022-09-28T21:47:30.762Z,2.03
2022-09-28T21:50:33.394Z,1.80
2022-09-28T21:53:37.792Z,1.70
2022-09-28T21:56:40.444Z,2.10
2022-09-28T21:59:43.611Z,1.90
2022-09-28T22:02:54.882Z,1.73
2022-09-28T22:05:58.445Z,1.97
2022-09-28T22:09:01.076Z,1.95
2022-09-28T22:12:04.028Z,1.95
2022-09-28T22:15:07.491Z,1.62
2022-09-28T22:18:10.300Z,1.83
2022-09-28T22:21:18.246Z,2.00
2022-09-28T22:24:21.256Z,2.20
2022-09-28T22:27:24.158Z,2.03
2022-09-28T22:30:27.178Z,2.30
2022-09-28T22:33:29.733Z,2.12
2022-09-28T22:36:32.705Z,2.80
2022-09-28T22:39:37.666Z,2.50
2022-09-28T22:42:41.002Z,2.60
2022-09-28T22:45:43.688Z,2.80
2022-09-28T22:48:50.674Z,2.58
2022-09-28T22:51:53.488Z,2.90
2022-09-28T22:54:56.532Z,3.37
2022-09-28T22:57:59.678Z,2.60
2022-09-28T23:01:11.785Z,2.08
2022-09-28T23:04:14.413Z,2.53
2022-09-28T23:07:17.298Z,2.50
2022-09-28T23:10:20.068Z,2.47
2022-09-28T23:13:22.910Z,2.78
2022-09-28T23:16:26.804Z,2.35
2022-09-28T23:19:29.705Z,2.70
2022-09-28T23:22:32.181Z,2.73
2022-09-28T23:25:35.108Z,2.92
2022-09-28T23:28:37.577Z,3.00
2022-09-28T23:31:40.689Z,3.00
2022-09-28T23:34:43.401Z,2.97
2022-09-28T23:37:50.332Z,2.50
2022-09-28T23:40:54.288Z,2.95
2022-09-28T23:43:57.514Z,2.62
2022-09-28T23:47:00.275Z,2.75
2022-09-28T23:50:06.797Z,3.15
2022-09-28T23:53:10.184Z,2.97
2022-09-28T23:56:14.457Z,3.17
2022-09-28T23:59:17.439Z,3.00
